createdAt,value
2019-05-18T00:00:07.876Z,13.27
2019-05-18T00:02:40.470Z,14.70
2019-05-18T00:05:12.632Z,11.70
2019-05-18T00:07:43.708Z,12.53
2019-05-18T00:10:14.755Z,11.20
2019-05-18T00:12:45.976Z,11.93
2019-05-18T00:15:17.279Z,16.83
2019-05-18T00:17:50.052Z,12.97
2019-05-18T00:20:21.246Z,11.77
2019-05-18T00:22:52.159Z,14.07
2019-05-18T00:25:23.696Z,12.57
2019-05-18T00:27:54.761Z,13.53
2019-05-18T00:30:25.995Z,11.47
2019-05-18T00:32:57.159Z,13.20
2019-05-18T00:35:28.389Z,11.03
2019-05-18T00:37:59.395Z,12.80
2019-05-18T00:40:30.631Z,11.60
2019-05-18T00:43:02.769Z,14.23
2019-05-18T00:45:33.924Z,14.40
2019-05-18T00:48:05.472Z,12.80
2019-05-18T00:50:36.603Z,13.40
2019-05-18T00:53:09.071Z,12.40
2019-05-18T00:55:40.060Z,10.70
2019-05-18T00:58:11.242Z,13.83
2019-05-18T01:00:42.408Z,12.23
2019-05-18T01:03:13.714Z,11.40
2019-05-18T01:05:44.632Z,12.77
2019-05-18T01:08:15.803Z,12.33
2019-05-18T01:10:47.063Z,12.70
2019-05-18T01:13:18.349Z,11.00
2019-05-18T01:15:49.773Z,9.97
2019-05-18T01:18:20.985Z,12.30
2019-05-18T01:20:52.372Z,11.83
2019-05-18T01:23:23.539Z,12.90
2019-05-18T01:25:54.699Z,10.47
2019-05-18T01:28:25.610Z,11.87
2019-05-18T01:30:56.844Z,12.63
2019-05-18T01:33:37.207Z,12.53
2019-05-18T01:36:08.383Z,11.43
2019-05-18T01:38:39.612Z,13.90
2019-05-18T01:41:10.768Z,12.60
2019-05-18T01:43:42.037Z,14.80
2019-05-18T01:46:13.171Z,12.50
2019-05-18T01:48:44.099Z,10.17
2019-05-18T01:51:15.251Z,11.80
2019-05-18T01:53:46.183Z,11.03
2019-05-18T01:56:17.971Z,13.10
2019-05-18T01:58:55.648Z,12.43
2019-05-18T02:01:27.036Z,12.17
2019-05-18T02:03:59.097Z,10.73
2019-05-18T02:06:31.518Z,11.40
2019-05-18T02:09:04.184Z,12.23
2019-05-18T02:11:36.272Z,11.40
2019-05-18T02:14:09.317Z,10.33
2019-05-18T02:16:41.303Z,11.63
2019-05-18T02:19:13.430Z,11.30
2019-05-18T02:21:46.037Z,13.70
2019-05-18T02:24:18.290Z,10.53
2019-05-18T02:26:54.108Z,13.17
2019-05-18T02:29:26.048Z,11.07
2019-05-18T02:31:57.497Z,11.07
2019-05-18T02:34:28.451Z,9.80
2019-05-18T02:37:04.078Z,11.20
2019-05-18T02:39:35.886Z,13.67
2019-05-18T02:42:07.997Z,9.83
2019-05-18T02:44:40.495Z,9.60
2019-05-18T02:47:14.968Z,9.33
2019-05-18T02:49:47.408Z,11.90
2019-05-18T02:52:23.684Z,8.70
2019-05-18T02:54:55.446Z,9.93
2019-05-18T02:57:26.577Z,12.93
2019-05-18T03:00:01.693Z,12.37
2019-05-18T03:02:33.017Z,13.10
2019-05-18T03:05:05.598Z,13.17
2019-05-18T03:07:37.895Z,13.53
2019-05-18T03:10:09.317Z,12.60
2019-05-18T03:12:40.455Z,11.30
2019-05-18T03:15:13.276Z,12.33
2019-05-18T03:17:45.034Z,13.53
2019-05-18T03:20:17.241Z,13.47
2019-05-18T03:22:48.161Z,12.43
2019-05-18T03:25:19.765Z,10.60
2019-05-18T03:27:53.061Z,13.80
2019-05-18T03:30:26.310Z,13.13
2019-05-18T03:32:57.521Z,11.57
2019-05-18T03:35:30.448Z,12.17
2019-05-18T03:38:05.623Z,11.00
2019-05-18T03:40:37.950Z,10.70
2019-05-18T03:43:10.258Z,13.97
2019-05-18T03:45:42.363Z,13.37
2019-05-18T03:48:14.367Z,11.93
2019-05-18T03:50:46.685Z,13.47
2019-05-18T03:53:20.353Z,11.40
2019-05-18T03:55:54.357Z,11.10
2019-05-18T03:58:25.847Z,11.43
2019-05-18T04:00:58.469Z,9.53
2019-05-18T04:03:31.315Z,9.37
2019-05-18T04:06:03.034Z,23.33
2019-05-18T04:08:35.666Z,10.40
2019-05-18T04:11:07.022Z,16.27
2019-05-18T04:13:38.173Z,9.87
2019-05-18T04:16:09.336Z,10.80
2019-05-18T04:18:40.472Z,11.43
2019-05-18T04:21:11.625Z,10.77
2019-05-18T04:23:42.522Z,8.57
2019-05-18T04:26:14.049Z,9.17
2019-05-18T04:28:45.208Z,11.57
2019-05-18T04:31:16.150Z,12.77
2019-05-18T04:33:47.280Z,14.20
2019-05-18T04:36:18.471Z,12.70
2019-05-18T04:38:52.358Z,12.03
2019-05-18T04:41:23.319Z,13.43
2019-05-18T04:43:54.808Z,13.80
2019-05-18T04:46:26.569Z,12.27
2019-05-18T04:48:58.123Z,14.13
2019-05-18T04:51:29.064Z,14.63
2019-05-18T04:54:00.223Z,17.37
2019-05-18T04:56:31.400Z,21.33
2019-05-18T04:59:02.334Z,20.87
2019-05-18T05:01:33.584Z,18.80
2019-05-18T05:04:04.820Z,13.60
2019-05-18T05:06:36.044Z,17.23
2019-05-18T05:09:08.287Z,15.90
2019-05-18T05:11:39.494Z,17.30
2019-05-18T05:14:11.879Z,19.03
2019-05-18T05:16:44.159Z,17.70
2019-05-18T05:19:15.307Z,20.97
2019-05-18T05:21:46.749Z,21.83
2019-05-18T05:24:17.932Z,20.23
2019-05-18T05:26:49.404Z,23.77
2019-05-18T05:29:20.592Z,25.37
2019-05-18T05:31:51.771Z,27.83
2019-05-18T05:34:23.293Z,27.20
2019-05-18T05:36:54.516Z,29.00
2019-05-18T05:39:26.023Z,28.50
2019-05-18T05:41:57.393Z,26.57
2019-05-18T05:44:28.645Z,26.43
2019-05-18T05:46:59.589Z,27.63
2019-05-18T05:49:30.733Z,27.47
2019-05-18T05:52:01.915Z,25.27
2019-05-18T05:54:35.368Z,29.83
2019-05-18T05:57:07.605Z,26.23
2019-05-18T05:59:38.783Z,29.80
2019-05-18T06:02:09.796Z,30.90
2019-05-18T06:04:41.229Z,27.23
2019-05-18T06:07:12.483Z,25.00
2019-05-18T06:09:43.652Z,24.80
2019-05-18T06:12:15.056Z,26.27
2019-05-18T06:14:46.203Z,27.77
2019-05-18T06:17:17.135Z,25.23
2019-05-18T06:19:48.040Z,26.50
2019-05-18T06:22:19.233Z,28.60
2019-05-18T06:24:50.165Z,28.60
2019-05-18T06:27:22.908Z,35.53
2019-05-18T06:29:54.571Z,24.77
2019-05-18T06:32:26.703Z,25.40
2019-05-18T06:34:58.080Z,24.13
2019-05-18T06:37:29.237Z,26.63
2019-05-18T06:40:00.376Z,25.53
2019-05-18T06:42:31.540Z,23.03
2019-05-18T06:45:02.794Z,25.07
2019-05-18T06:47:34.275Z,24.83
2019-05-18T06:50:05.501Z,20.77
2019-05-18T06:52:36.670Z,23.27
2019-05-18T06:55:07.750Z,22.70
2019-05-18T06:57:40.371Z,21.97
2019-05-18T07:00:12.991Z,23.30
2019-05-18T07:02:43.991Z,22.23
2019-05-18T07:05:15.271Z,21.03
2019-05-18T07:07:46.447Z,22.43
2019-05-18T07:10:17.508Z,18.73
2019-05-18T07:12:49.734Z,19.93
2019-05-18T07:15:21.211Z,18.90
2019-05-18T07:17:52.396Z,17.73
2019-05-18T07:20:23.827Z,18.40
2019-05-18T07:22:56.256Z,18.50
2019-05-18T07:25:27.414Z,18.73
2019-05-18T07:27:58.570Z,17.47
2019-05-18T07:30:29.796Z,15.87
2019-05-18T07:33:00.959Z,16.07
2019-05-18T07:35:37.600Z,17.53
2019-05-18T07:38:09.063Z,15.18
2019-05-18T07:40:39.991Z,15.67
2019-05-18T07:43:12.399Z,14.10
2019-05-18T07:45:43.547Z,14.47
2019-05-18T07:48:15.975Z,12.77
2019-05-18T07:50:53.736Z,16.33
2019-05-18T07:53:24.647Z,14.20
2019-05-18T07:55:56.055Z,11.97
2019-05-18T07:58:27.311Z,25.73
2019-05-18T08:00:59.552Z,14.67
2019-05-18T08:03:30.822Z,27.87
2019-05-18T08:06:02.605Z,18.17
2019-05-18T08:08:34.174Z,14.00
2019-05-18T08:11:05.323Z,16.37
2019-05-18T08:13:36.582Z,13.97
2019-05-18T08:16:07.837Z,12.97
2019-05-18T08:18:39.048Z,12.63
2019-05-18T08:21:10.292Z,13.40
2019-05-18T08:23:42.395Z,10.53
2019-05-18T08:26:13.648Z,10.50
2019-05-18T08:28:44.914Z,11.17
2019-05-18T08:31:16.091Z,13.63
2019-05-18T08:33:47.531Z,10.90
2019-05-18T08:36:18.685Z,9.60
2019-05-18T08:38:49.853Z,11.23
2019-05-18T08:41:22.365Z,10.33
2019-05-18T08:43:54.795Z,10.30
2019-05-18T08:46:28.403Z,9.23
2019-05-18T08:49:02.652Z,9.80
2019-05-18T08:51:35.118Z,10.33
2019-05-18T08:54:06.096Z,12.10
2019-05-18T08:56:37.270Z,12.33
2019-05-18T08:59:21.490Z,11.50
2019-05-18T09:01:52.778Z,9.00
2019-05-18T09:04:24.945Z,11.20
2019-05-18T09:06:56.379Z,10.90
2019-05-18T09:09:27.525Z,13.03
2019-05-18T09:11:58.427Z,13.90
2019-05-18T09:14:29.336Z,13.10
2019-05-18T09:17:00.775Z,12.70
2019-05-18T09:19:32.196Z,12.37
2019-05-18T09:22:03.115Z,14.63
2019-05-18T09:24:34.720Z,18.03
2019-05-18T09:27:05.857Z,14.97
2019-05-18T09:29:37.093Z,13.47
2019-05-18T09:32:08.248Z,15.70
2019-05-18T09:34:39.251Z,15.33
2019-05-18T09:37:10.407Z,14.87
2019-05-18T09:39:41.644Z,14.90
2019-05-18T09:42:12.792Z,18.80
2019-05-18T09:44:44.698Z,17.27
2019-05-18T09:47:15.671Z,15.93
2019-05-18T09:49:46.614Z,18.00
2019-05-18T09:52:17.848Z,12.67
2019-05-18T09:54:49.015Z,13.40
2019-05-18T09:57:20.260Z,14.00
2019-05-18T09:59:51.672Z,15.83
2019-05-18T10:02:22.836Z,15.87
2019-05-18T10:04:54.009Z,14.23
2019-05-18T10:07:25.186Z,12.03
2019-05-18T10:09:56.359Z,14.53
2019-05-18T10:12:27.748Z,14.43
2019-05-18T10:14:59.170Z,13.00
2019-05-18T10:17:30.665Z,12.37
2019-05-18T10:20:02.317Z,13.97
2019-05-18T10:22:33.469Z,14.63
2019-05-18T10:25:04.816Z,12.90
2019-05-18T10:27:36.509Z,13.70
2019-05-18T10:30:09.908Z,14.97
2019-05-18T10:32:40.840Z,14.13
2019-05-18T10:35:13.406Z,13.17
2019-05-18T10:37:44.561Z,12.97
2019-05-18T10:40:15.881Z,14.30
2019-05-18T10:42:47.035Z,13.80
2019-05-18T10:45:18.303Z,15.27
2019-05-18T10:47:49.487Z,13.33
2019-05-18T10:50:20.734Z,12.87
2019-05-18T10:52:52.148Z,10.70
2019-05-18T10:55:23.458Z,11.77
2019-05-18T10:57:54.688Z,12.73
2019-05-18T11:00:25.672Z,13.97
2019-05-18T11:02:56.840Z,11.90
2019-05-18T11:05:28.109Z,15.43
2019-05-18T11:07:59.530Z,11.60
2019-05-18T11:10:30.780Z,11.33
2019-05-18T11:13:02.039Z,12.53
2019-05-18T11:15:33.317Z,11.53
2019-05-18T11:18:04.331Z,12.07
2019-05-18T11:20:35.226Z,10.43
2019-05-18T11:23:06.545Z,13.57
2019-05-18T11:25:37.464Z,12.33
2019-05-18T11:28:08.681Z,8.37
2019-05-18T11:30:39.931Z,13.60
2019-05-18T11:33:11.084Z,12.30
2019-05-18T11:35:42.975Z,14.17
2019-05-18T11:38:14.934Z,10.60
2019-05-18T11:40:45.867Z,11.13
2019-05-18T11:43:17.551Z,10.50
2019-05-18T11:45:48.791Z,10.27
2019-05-18T11:48:20.685Z,9.27
2019-05-18T11:50:52.941Z,9.33
2019-05-18T11:53:24.001Z,13.27
2019-05-18T11:55:54.958Z,11.40
2019-05-18T11:58:26.783Z,11.27
2019-05-18T12:00:58.324Z,8.87
2019-05-18T12:03:31.460Z,8.37
2019-05-18T12:06:06.450Z,8.87
2019-05-18T12:08:37.592Z,8.80
2019-05-18T12:11:10.504Z,10.77
2019-05-18T12:13:48.490Z,11.73
2019-05-18T12:16:19.435Z,14.27
2019-05-18T12:18:51.139Z,10.47
2019-05-18T12:21:25.740Z,8.77
2019-05-18T12:24:15.232Z,7.93
2019-05-18T12:26:49.096Z,8.57
2019-05-18T12:29:20.316Z,10.03
2019-05-18T12:31:51.744Z,12.33
2019-05-18T12:34:24.085Z,12.53
2019-05-18T12:36:55.305Z,14.17
2019-05-18T12:39:26.460Z,13.70
2019-05-18T12:41:57.708Z,14.53
2019-05-18T12:44:28.876Z,11.07
2019-05-18T12:46:59.970Z,14.30
2019-05-18T12:49:31.140Z,12.17
2019-05-18T12:52:02.388Z,11.70
2019-05-18T12:54:45.608Z,11.97
2019-05-18T12:57:06.436Z,9.77
2019-05-18T12:59:37.572Z,12.33
2019-05-18T13:02:09.799Z,11.77
2019-05-18T13:04:41.934Z,11.60
2019-05-18T13:07:13.363Z,11.97
2019-05-18T13:09:44.547Z,9.80
2019-05-18T13:12:16.223Z,12.93
2019-05-18T13:14:47.715Z,11.93
2019-05-18T13:17:21.280Z,10.97
2019-05-18T13:19:51.576Z,11.67
2019-05-18T13:22:22.568Z,12.57
2019-05-18T13:24:53.722Z,13.07
2019-05-18T13:27:38.447Z,14.17
2019-05-18T13:30:02.111Z,12.00
2019-05-18T13:32:33.176Z,9.63
2019-05-18T13:35:04.806Z,9.40
2019-05-18T13:37:35.935Z,8.50
2019-05-18T13:40:08.144Z,7.50
2019-05-18T13:42:40.305Z,10.17
2019-05-18T13:45:11.814Z,12.13
2019-05-18T13:47:42.983Z,12.90
2019-05-18T13:50:14.578Z,10.83
2019-05-18T13:52:45.760Z,11.33
2019-05-18T13:55:17.143Z,11.00
2019-05-18T13:57:48.312Z,12.20
2019-05-18T14:00:20.508Z,8.20
2019-05-18T14:02:51.955Z,16.17
2019-05-18T14:05:23.178Z,8.97
2019-05-18T14:07:54.336Z,11.20
2019-05-18T14:10:26.443Z,9.28
2019-05-18T14:12:57.675Z,16.70
2019-05-18T14:15:28.910Z,9.57
2019-05-18T14:18:00.211Z,9.57
2019-05-18T14:20:31.397Z,8.97
2019-05-18T14:23:02.848Z,9.07
2019-05-18T14:25:34.044Z,11.23
2019-05-18T14:28:05.381Z,9.10
2019-05-18T14:30:36.824Z,9.83
2019-05-18T14:33:08.146Z,8.50
2019-05-18T14:35:39.296Z,10.33
2019-05-18T14:38:10.546Z,8.90
2019-05-18T14:40:41.750Z,10.23
2019-05-18T14:43:13.300Z,9.20
2019-05-18T14:45:44.775Z,10.00
2019-05-18T14:48:18.172Z,10.03
2019-05-18T14:50:49.323Z,9.47
2019-05-18T14:53:20.491Z,9.37
2019-05-18T14:55:51.393Z,9.13
2019-05-18T14:58:22.532Z,9.00
2019-05-18T15:00:55.133Z,10.20
2019-05-18T15:03:26.404Z,8.80
2019-05-18T15:05:57.567Z,11.00
2019-05-18T15:08:28.727Z,11.17
2019-05-18T15:11:00.015Z,10.53
2019-05-18T15:13:31.184Z,11.30
2019-05-18T15:16:02.211Z,11.30
2019-05-18T15:18:33.157Z,10.30
2019-05-18T15:21:04.473Z,10.50
2019-05-18T15:23:35.907Z,11.60
2019-05-18T15:26:07.223Z,10.37
2019-05-18T15:28:38.327Z,9.57
2019-05-18T15:31:10.226Z,11.50
2019-05-18T15:33:41.611Z,9.93
2019-05-18T15:36:12.571Z,10.13
2019-05-18T15:38:43.756Z,8.20
2019-05-18T15:41:18.694Z,9.50
2019-05-18T15:43:51.337Z,10.60
2019-05-18T15:46:22.772Z,7.97
2019-05-18T15:48:54.015Z,10.47
2019-05-18T15:51:25.350Z,8.67
2019-05-18T15:53:56.551Z,8.67
2019-05-18T15:56:27.760Z,9.40
2019-05-18T15:58:58.949Z,8.30
2019-05-18T16:01:30.296Z,8.20
2019-05-18T16:04:01.203Z,8.83
2019-05-18T16:06:32.436Z,18.33
2019-05-18T16:09:04.939Z,23.67
2019-05-18T16:11:36.417Z,22.53
2019-05-18T16:14:07.709Z,22.37
2019-05-18T16:16:39.097Z,19.87
2019-05-18T16:19:10.205Z,21.83
2019-05-18T16:21:41.138Z,24.13
2019-05-18T16:24:12.661Z,19.47
2019-05-18T16:26:46.406Z,22.93
2019-05-18T16:29:18.524Z,21.20
2019-05-18T16:31:50.141Z,22.67
2019-05-18T16:34:21.226Z,23.93
2019-05-18T16:36:53.358Z,20.07
2019-05-18T16:39:24.768Z,20.13
2019-05-18T16:41:56.041Z,20.83
2019-05-18T16:44:27.272Z,20.50
2019-05-18T16:47:02.192Z,25.53
2019-05-18T16:49:33.120Z,21.03
2019-05-18T16:52:04.216Z,21.77
2019-05-18T16:54:35.371Z,23.67
2019-05-18T16:57:08.625Z,21.97
2019-05-18T16:59:39.744Z,21.63
2019-05-18T17:02:10.995Z,22.53
2019-05-18T17:04:42.491Z,21.20
2019-05-18T17:07:14.860Z,20.27
2019-05-18T17:09:46.133Z,21.30
2019-05-18T17:12:17.386Z,23.43
2019-05-18T17:14:48.886Z,23.20
2019-05-18T17:17:20.992Z,24.30
2019-05-18T17:19:51.928Z,20.37
2019-05-18T17:22:23.437Z,20.90
2019-05-18T17:24:54.616Z,20.23
2019-05-18T17:27:26.773Z,20.43
2019-05-18T17:29:57.953Z,21.90
2019-05-18T17:32:29.115Z,22.63
2019-05-18T17:35:00.280Z,24.23
2019-05-18T17:37:32.064Z,21.20
2019-05-18T17:40:03.413Z,25.87
2019-05-18T17:42:34.716Z,24.60
2019-05-18T17:45:06.693Z,24.33
2019-05-18T17:47:37.700Z,23.70
2019-05-18T17:50:10.816Z,26.17
2019-05-18T17:52:41.931Z,30.03
2019-05-18T17:55:16.392Z,32.23
2019-05-18T17:57:46.485Z,30.90
2019-05-18T18:00:18.196Z,27.30
2019-05-18T18:02:50.896Z,30.63
2019-05-18T18:05:22.168Z,34.20
2019-05-18T18:07:55.609Z,31.33
2019-05-18T18:10:26.653Z,34.33
2019-05-18T18:12:57.815Z,35.03
2019-05-18T18:15:28.825Z,35.13
2019-05-18T18:18:00.001Z,33.53
2019-05-18T18:20:31.508Z,33.97
2019-05-18T18:23:02.653Z,35.33
2019-05-18T18:25:33.976Z,33.23
2019-05-18T18:28:05.552Z,33.43
2019-05-18T18:30:36.928Z,35.17
2019-05-18T18:33:08.103Z,33.03
2019-05-18T18:35:39.780Z,30.73
2019-05-18T18:38:11.005Z,33.10
2019-05-18T18:40:42.635Z,36.30
2019-05-18T18:43:13.835Z,36.13
2019-05-18T18:45:45.324Z,34.17
2019-05-18T18:48:16.569Z,36.13
2019-05-18T18:50:47.807Z,37.33
2019-05-18T18:53:26.620Z,34.40
2019-05-18T18:55:58.152Z,37.30
2019-05-18T18:58:29.076Z,39.50
2019-05-18T19:01:00.314Z,38.60
2019-05-18T19:03:32.920Z,38.60
2019-05-18T19:06:05.017Z,39.90
2019-05-18T19:08:36.023Z,41.40
2019-05-18T19:11:07.280Z,41.53
2019-05-18T19:13:38.203Z,42.47
2019-05-18T19:16:09.377Z,44.13
2019-05-18T19:18:40.891Z,41.63
2019-05-18T19:21:12.379Z,44.80
2019-05-18T19:23:43.404Z,40.87
2019-05-18T19:26:14.849Z,42.70
2019-05-18T19:28:46.059Z,41.43
2019-05-18T19:31:17.377Z,42.93
2019-05-18T19:33:48.840Z,44.10
2019-05-18T19:36:20.032Z,41.50
2019-05-18T19:38:50.980Z,43.60
2019-05-18T19:41:22.403Z,42.90
2019-05-18T19:43:53.551Z,42.47
2019-05-18T19:46:25.243Z,45.07
2019-05-18T19:48:56.408Z,45.33
2019-05-18T19:51:27.616Z,43.57
2019-05-18T19:53:58.526Z,47.33
2019-05-18T19:56:37.498Z,50.00
2019-05-18T19:59:02.767Z,45.40
2019-05-18T20:01:33.964Z,47.63
2019-05-18T20:04:05.615Z,47.43
2019-05-18T20:06:37.520Z,44.60
2019-05-18T20:09:08.758Z,45.87
2019-05-18T20:11:40.511Z,43.00
2019-05-18T20:14:11.692Z,44.00
2019-05-18T20:16:42.949Z,45.67
2019-05-18T20:19:14.176Z,43.77
2019-05-18T20:21:47.719Z,43.60
2019-05-18T20:24:19.080Z,49.37
2019-05-18T20:26:50.536Z,43.90
2019-05-18T20:29:22.065Z,49.17
2019-05-18T20:31:53.250Z,46.07
2019-05-18T20:34:25.787Z,46.93
2019-05-18T20:36:57.068Z,48.23
2019-05-18T20:39:28.648Z,45.47
2019-05-18T20:41:59.713Z,48.67
2019-05-18T20:44:31.265Z,48.60
2019-05-18T20:47:02.723Z,48.30
2019-05-18T20:49:34.249Z,48.27
2019-05-18T20:52:06.535Z,50.60
2019-05-18T20:54:37.931Z,47.33
2019-05-18T20:57:09.260Z,50.70
2019-05-18T20:59:41.005Z,50.07
2019-05-18T21:02:14.343Z,56.33
2019-05-18T21:04:46.027Z,51.97
2019-05-18T21:07:17.061Z,48.73
2019-05-18T21:09:48.414Z,45.93
2019-05-18T21:12:20.200Z,52.40
2019-05-18T21:14:51.766Z,57.07
2019-05-18T21:17:22.859Z,47.77
2019-05-18T21:19:53.924Z,58.70
2019-05-18T21:22:24.937Z,49.93
2019-05-18T21:24:56.863Z,55.77
2019-05-18T21:27:27.904Z,52.87
2019-05-18T21:29:59.488Z,55.17
2019-05-18T21:32:31.372Z,52.10
2019-05-18T21:35:03.000Z,55.93
2019-05-18T21:37:34.148Z,54.37
2019-05-18T21:40:06.052Z,53.23
2019-05-18T21:42:38.560Z,57.20
2019-05-18T21:45:11.551Z,53.73
2019-05-18T21:47:42.853Z,57.23
2019-05-18T21:50:14.297Z,56.73
2019-05-18T21:52:45.656Z,59.03
2019-05-18T21:55:16.993Z,57.40
2019-05-18T21:57:48.095Z,57.17
2019-05-18T22:00:19.830Z,53.63
2019-05-18T22:02:52.651Z,54.73
2019-05-18T22:05:24.189Z,55.60
2019-05-18T22:07:55.864Z,54.90
2019-05-18T22:10:27.824Z,54.13
2019-05-18T22:12:59.133Z,59.50
2019-05-18T22:15:30.172Z,52.00
2019-05-18T22:18:04.279Z,55.80
2019-05-18T22:20:37.646Z,57.97
2019-05-18T22:23:09.795Z,56.23
2019-05-18T22:25:40.838Z,54.03
2019-05-18T22:28:11.940Z,55.27
2019-05-18T22:30:42.992Z,54.27
2019-05-18T22:33:14.325Z,58.80
2019-05-18T22:35:45.522Z,59.93
2019-05-18T22:38:16.786Z,57.17
2019-05-18T22:40:48.116Z,57.90
2019-05-18T22:43:19.765Z,57.27
2019-05-18T22:45:51.268Z,58.33
2019-05-18T22:48:22.482Z,55.47
2019-05-18T22:50:53.830Z,54.37
2019-05-18T22:53:25.435Z,56.87
2019-05-18T22:55:56.453Z,55.97
2019-05-18T22:58:27.812Z,63.27
2019-05-18T23:00:59.069Z,59.67
2019-05-18T23:03:30.386Z,59.30
2019-05-18T23:06:01.798Z,58.50
2019-05-18T23:08:34.156Z,58.57
2019-05-18T23:11:05.596Z,60.30
2019-05-18T23:13:36.628Z,57.17
2019-05-18T23:16:07.993Z,58.37
2019-05-18T23:18:39.185Z,56.20
2019-05-18T23:21:10.225Z,56.13
2019-05-18T23:23:41.986Z,56.87
2019-05-18T23:26:15.212Z,60.50
2019-05-18T23:28:46.798Z,65.50
2019-05-18T23:31:18.923Z,58.83
2019-05-18T23:33:50.212Z,63.43
2019-05-18T23:36:33.666Z,61.47
2019-05-18T23:39:06.908Z,53.23
2019-05-18T23:41:38.227Z,59.40
2019-05-18T23:44:09.468Z,64.80
2019-05-18T23:46:40.974Z,63.27
2019-05-18T23:49:13.719Z,53.60
2019-05-18T23:51:45.006Z,58.27
2019-05-18T23:54:16.448Z,57.63
2019-05-18T23:56:47.790Z,61.20
2019-05-18T23:59:19.416Z,57.57
